Time;durP1;ratioP1;P1;durP2;ratioP2;P2;SDS_P1;SDS_P2;PMS_P1;PMS_P2;Temp;Humidity;BMP_temperature;BMP_pressure;BME280_temperature;BME280_humidity;BME280_pressure;Samples;Min_cycle;Max_cycle;Signal;HPM_P1;HPM_P2
2021/04/26 04:51:44;;;;;;;;;;;;;;;3.79;92.07;97888.63;1743220;77;20493;-69
2021/04/26 04:54:14;;;;;;;;;;;;;;;3.79;92.70;97891.73;1710241;81;20505;-67
2021/04/26 04:56:44;;;;;;;;;;;;;;;3.82;92.61;97890.81;1766486;79;20450;-66
2021/04/26 04:59:12;;;;;;;;;;;;;;;3.87;91.10;97895.44;1741224;79;20606;-67
2021/04/26 05:01:41;;;;;;;;;;;;;;;3.94;91.14;97893.64;1729388;79;21011;-67
2021/04/26 05:04:26;;;;;;;;;;;;;;;3.99;89.58;97887.34;1668436;82;20410;-68
2021/04/26 05:07:10;;;;;;;;;;;;;;;4.11;89.06;97883.63;1808846;77;20548;-66
2021/04/26 05:09:52;;;;;;;;;;;;;;;4.08;86.32;97878.35;1727301;80;20659;-65
2021/04/26 05:12:38;;;;;;;;;;;;;;;4.10;85.68;97881.56;1782738;78;22038;-67
2021/04/26 05:15:09;;;;;;;;;;;;;;;4.10;84.90;97891.16;1777325;78;20390;-66
2021/04/26 05:17:37;;;;;;;;;;;;;;;4.07;83.52;97891.05;1728438;80;20590;-67
2021/04/26 05:20:06;;;;;;;;;;;;;;;4.04;82.81;97888.84;1697522;82;20542;-67
2021/04/26 05:22:37;;;;;;;;;;;;;;;4.02;83.55;97891.36;1694866;83;20612;-68
2021/04/26 05:25:08;;;;;;;;;;;;;;;4.02;84.06;97899.16;1686873;83;21689;-68
2021/04/26 05:27:37;;;;;;;;;;;;;;;4.02;83.37;97897.36;1688114;83;20674;-65
2021/04/26 05:30:09;;;;;;;;;;;;;;;4.04;81.71;97903.63;1688430;83;20487;-69
2021/04/26 05:32:37;;;;;;;;;;;;;;;4.03;82.14;97892.46;1685902;83;20478;-66
2021/04/26 05:35:07;;;;;;;;;;;;;;;4.05;81.05;97897.44;1692496;83;20587;-68
2021/04/26 05:37:37;;;;;;;;;;;;;;;4.04;81.42;97895.83;1725711;80;22016;-68
2021/04/26 05:40:07;;;;;;;;;;;;;;;4.05;81.02;97893.04;1716649;82;20471;-67
2021/04/26 05:42:37;;;;;;;;;;;;;;;4.09;81.63;97892.95;1723976;80;20235;-65
2021/04/26 05:45:06;;;;;;;;;;;;;;;4.12;82.23;97909.45;1693537;82;20268;-66
2021/04/26 05:47:54;;;;;;;;;;;;;;;4.18;81.86;97892.23;1693226;82;20626;-64
2021/04/26 05:50:23;;;;;;;;;;;;;;;4.26;80.50;97890.73;1691103;82;21922;-69
2021/04/26 05:52:54;;;;;;;;;;;;;;;4.35;81.13;97891.34;1686046;82;20364;-66
2021/04/26 05:55:22;;;;;;;;;;;;;;;4.42;80.82;97899.44;1686594;82;20483;-65
2021/04/26 05:57:50;;;;;;;;;;;;;;;4.50;77.28;97894.53;1692536;82;20206;-67
2021/04/26 06:00:24;;;;;;;;;;;;;;;4.54;75.42;97899.11;1711966;81;20794;-63
2021/04/26 06:02:51;;;;;;;;;;;;;;;4.55;75.96;97900.72;1708298;81;22386;-68
2021/04/26 06:05:20;;;;;;;;;;;;;;;4.55;76.46;97903.33;1711773;81;20696;-63
2021/04/26 06:07:51;;;;;;;;;;;;;;;4.55;76.56;97895.52;1714332;81;20356;-66
2021/04/26 06:10:19;;;;;;;;;;;;;;;4.59;75.75;97898.03;1707754;81;20623;-66
2021/04/26 06:12:47;;;;;;;;;;;;;;;4.60;75.10;97901.44;1709602;82;20905;-64
2021/04/26 06:15:25;;;;;;;;;;;;;;;4.58;75.61;97901.63;1728944;80;21920;-68
2021/04/26 06:17:51;;;;;;;;;;;;;;;4.59;75.03;97892.83;1699182;82;20584;-65
2021/04/26 06:20:20;;;;;;;;;;;;;;;4.65;77.22;97903.72;1701485;83;20550;-66
2021/04/26 06:22:48;;;;;;;;;;;;;;;4.74;77.10;97897.00;1720786;81;20411;-67
2021/04/26 06:25:17;;;;;;;;;;;;;;;4.83;73.06;97900.96;1728177;80;20714;-69
2021/04/26 06:27:47;;;;;;;;;;;;;;;4.89;71.61;97904.87;1698929;81;21890;-68
2021/04/26 06:30:15;;;;;;;;;;;;;;;4.93;70.51;97902.66;1708215;81;20637;-68
2021/04/26 06:32:44;;;;;;;;;;;;;;;4.96;71.87;97907.47;1704926;81;20172;-68
2021/04/26 06:35:12;;;;;;;;;;;;;;;5.01;72.48;97905.84;1693542;82;20496;-67
2021/04/26 06:37:40;;;;;;;;;;;;;;;5.08;71.35;97910.52;1702117;83;20874;-68
2021/04/26 06:40:09;;;;;;;;;;;;;;;5.11;69.80;97912.70;1700735;83;21846;-65
2021/04/26 06:42:37;;;;;;;;;;;;;;;5.11;69.94;97911.92;1726359;81;20516;-67
2021/04/26 06:45:08;;;;;;;;;;;;;;;5.10;69.53;97911.63;1695297;82;20222;-65
2021/04/26 06:47:36;;;;;;;;;;;;;;;5.09;70.03;97910.83;1699659;83;20551;-65
2021/04/26 06:50:05;;;;;;;;;;;;;;;5.10;68.34;97912.92;1719768;82;20560;-67
2021/04/26 06:52:33;;;;;;;;;;;;;;;5.10;66.48;97907.72;1717224;81;21102;-69
2021/04/26 06:55:01;;;;;;;;;;;;;;;5.11;65.97;97911.92;1717792;81;20584;-63
2021/04/26 06:57:29;;;;;;;;;;;;;;;5.13;65.91;97906.48;1716097;81;20467;-68
2021/04/26 06:59:57;;;;;;;;;;;;;;;5.14;65.48;97912.80;1714344;82;20588;-64
2021/04/26 07:02:25;;;;;;;;;;;;;;;5.17;66.32;97913.70;1717988;81;20608;-65
2021/04/26 07:04:53;;;;;;;;;;;;;;;5.24;66.37;97910.58;1707513;81;21982;-68
2021/04/26 07:07:22;;;;;;;;;;;;;;;5.35;65.47;97918.23;1713343;81;20873;-69
2021/04/26 07:09:51;;;;;;;;;;;;;;;5.53;66.20;97911.05;1692641;83;20513;-66
2021/04/26 07:12:20;;;;;;;;;;;;;;;5.68;65.00;97925.41;1690723;82;20514;-66
2021/04/26 07:14:48;;;;;;;;;;;;;;;5.82;65.38;97923.02;1690096;83;20630;-67
2021/04/26 07:17:19;;;;;;;;;;;;;;;5.90;63.79;97931.63;1717845;82;21952;-66
2021/04/26 07:19:48;;;;;;;;;;;;;;;5.91;63.25;97941.84;1703184;81;20616;-66
2021/04/26 07:22:16;;;;;;;;;;;;;;;5.87;61.63;97929.73;1690692;83;20141;-62
2021/04/26 07:24:44;;;;;;;;;;;;;;;5.88;62.32;97931.34;1711831;81;20487;-64
2021/04/26 07:27:12;;;;;;;;;;;;;;;5.93;62.85;97928.08;1719381;81;20688;-63
2021/04/26 07:29:40;;;;;;;;;;;;;;;6.04;60.56;97929.23;1712474;81;21829;-64
2021/04/26 07:32:08;;;;;;;;;;;;;;;6.17;60.56;97931.75;1714886;81;20595;-63
2021/04/26 07:34:36;;;;;;;;;;;;;;;6.24;60.35;97933.30;1710331;81;20510;-62
2021/04/26 07:37:05;;;;;;;;;;;;;;;6.26;58.18;97937.81;1714722;81;21178;-66
2021/04/26 07:39:33;;;;;;;;;;;;;;;6.28;58.07;97931.84;1700477;82;20842;-66
2021/04/26 07:42:03;;;;;;;;;;;;;;;6.39;54.30;97929.06;1705320;82;20772;-68
2021/04/26 07:44:31;;;;;;;;;;;;;;;6.55;53.93;97927.73;1723795;81;20549;-70
2021/04/26 07:46:59;;;;;;;;;;;;;;;6.70;54.87;97930.02;1724284;81;20221;-65
2021/04/26 07:49:27;;;;;;;;;;;;;;;6.81;55.45;97926.17;1736398;80;20554;-63
2021/04/26 07:51:56;;;;;;;;;;;;;;;6.85;54.52;97924.71;1732659;80;20603;-64
2021/04/26 07:54:25;;;;;;;;;;;;;;;6.73;50.61;97929.56;1721996;81;21935;-67
2021/04/26 07:56:53;;;;;;;;;;;;;;;6.63;53.66;97933.46;1719939;81;20893;-66
2021/04/26 07:59:21;;;;;;;;;;;;;;;6.59;55.55;97935.42;1714041;81;20300;-67
2021/04/26 08:01:49;;;;;;;;;;;;;;;6.61;55.20;97931.59;1701973;81;20397;-64
2021/04/26 08:04:17;;;;;;;;;;;;;;;6.67;53.02;97931.23;1706729;81;20764;-66
2021/04/26 08:06:45;;;;;;;;;;;;;;;6.75;55.17;97922.32;1718106;81;20968;-68
2021/04/26 08:09:13;;;;;;;;;;;;;;;6.95;52.99;97923.72;1702118;81;20581;-70
2021/04/26 08:11:42;;;;;;;;;;;;;;;7.16;54.15;97923.79;1725469;79;20655;-68
2021/04/26 08:14:10;;;;;;;;;;;;;;;7.29;52.75;97930.67;1724194;80;20737;-69
2021/04/26 08:16:39;;;;;;;;;;;;;;;7.34;50.20;97932.95;1706611;81;20519;-68
2021/04/26 08:19:07;;;;;;;;;;;;;;;7.33;48.54;97931.34;1727798;81;21796;-65
2021/04/26 08:21:35;;;;;;;;;;;;;;;7.29;46.07;97926.75;1716309;81;20589;-68
2021/04/26 08:24:04;;;;;;;;;;;;;;;7.27;45.26;97926.20;1727916;81;20570;-64
2021/04/26 08:26:32;;;;;;;;;;;;;;;7.29;45.93;97927.55;1712196;81;20573;-66
2021/04/26 08:29:00;;;;;;;;;;;;;;;7.33;44.51;97920.89;1701947;81;20637;-66
2021/04/26 08:31:27;;;;;;;;;;;;;;;7.36;45.24;97932.20;1704099;81;20759;-64
2021/04/26 08:33:56;;;;;;;;;;;;;;;7.37;46.51;97932.48;1700220;81;20481;-65
2021/04/26 08:36:24;;;;;;;;;;;;;;;7.38;46.50;97938.02;1690948;82;20457;-67
2021/04/26 08:38:52;;;;;;;;;;;;;;;7.35;46.73;97934.52;1703640;81;20575;-68
2021/04/26 08:41:20;;;;;;;;;;;;;;;7.31;47.70;97939.91;1719697;81;20676;-65
2021/04/26 08:43:48;;;;;;;;;;;;;;;7.28;48.21;97942.14;1712250;81;21913;-64
2021/04/26 08:46:19;;;;;;;;;;;;;;;7.30;48.98;97938.81;1720298;81;20353;-63
2021/04/26 08:48:47;;;;;;;;;;;;;;;7.29;46.42;97941.93;1701351;81;20553;-67
2021/04/26 08:51:16;;;;;;;;;;;;;;;7.32;47.69;97945.43;1722063;81;20401;-62
2021/04/26 08:53:45;;;;;;;;;;;;;;;7.35;45.76;97944.98;1716687;81;20704;-65
2021/04/26 08:56:13;;;;;;;;;;;;;;;7.39;46.71;97943.53;1720617;80;21935;-66
2021/04/26 08:58:41;;;;;;;;;;;;;;;7.52;47.41;97947.80;1716445;80;20497;-65
2021/04/26 09:01:09;;;;;;;;;;;;;;;7.71;46.65;97948.56;1706001;81;21028;-62
2021/04/26 09:03:38;;;;;;;;;;;;;;;7.90;46.62;97949.33;1707385;82;20184;-68
2021/04/26 09:06:14;;;;;;;;;;;;;;;7.94;45.18;97955.20;1701124;82;20628;-65
2021/04/26 09:08:50;;;;;;;;;;;;;;;7.84;43.67;97952.33;1699672;81;21954;-63
2021/04/26 09:11:19;;;;;;;;;;;;;;;7.72;45.03;97949.66;1707634;83;20926;-62
2021/04/26 09:13:49;;;;;;;;;;;;;;;7.66;46.13;97959.70;1693542;82;20745;-65
2021/04/26 09:16:22;;;;;;;;;;;;;;;7.54;44.32;97959.36;1707926;83;20593;-65
2021/04/26 09:19:00;;;;;;;;;;;;;;;7.47;45.62;97964.67;1692630;81;20664;-64
2021/04/26 09:21:46;;;;;;;;;;;;;;;7.48;45.37;97966.78;1703743;81;21977;-65
2021/04/26 09:24:25;;;;;;;;;;;;;;;7.52;45.79;97967.41;1694804;83;20589;-65
2021/04/26 09:27:11;;;;;;;;;;;;;;;7.57;46.70;97964.13;1717045;80;20318;-64
2021/04/26 09:29:42;;;;;;;;;;;;;;;7.66;46.86;97965.44;1697821;83;20570;-66
2021/04/26 09:32:15;;;;;;;;;;;;;;;7.81;47.75;97964.03;1721589;80;20589;-63
2021/04/26 09:34:46;;;;;;;;;;;;;;;7.93;45.64;97973.73;1723169;80;21890;-67
2021/04/26 09:37:22;;;;;;;;;;;;;;;8.00;45.48;97966.08;1692210;83;20484;-68
2021/04/26 09:40:05;;;;;;;;;;;;;;;8.03;45.71;97972.70;1701801;83;20250;-65
2021/04/26 09:42:46;;;;;;;;;;;;;;;8.00;46.66;97976.55;1698751;81;20550;-67
2021/04/26 09:45:22;;;;;;;;;;;;;;;7.94;46.92;97985.80;1699106;83;20583;-64
2021/04/26 09:48:12;;;;;;;;;;;;;;;7.94;47.09;97974.02;1701362;83;21917;-65
2021/04/26 09:51:17;;;;;;;;;;;;;;;8.00;46.40;97978.36;1700013;83;20529;-63
2021/04/26 09:53:55;;;;;;;;;;;;;;;8.06;46.69;97969.14;1644526;85;20401;-64
2021/04/26 09:56:26;;;;;;;;;;;;;;;8.26;47.79;97962.30;1660184;84;20643;-63
2021/04/26 09:58:55;;;;;;;;;;;;;;;8.50;45.85;97957.94;1657510;85;20638;-65
2021/04/26 10:01:26;;;;;;;;;;;;;;;8.65;44.52;97954.85;1653285;84;21962;-65
2021/04/26 10:03:55;;;;;;;;;;;;;;;8.76;44.97;97960.11;1649330;85;20413;-65
2021/04/26 10:06:26;;;;;;;;;;;;;;;8.78;44.21;97957.27;1644568;85;20492;-64
2021/04/26 10:08:57;;;;;;;;;;;;;;;8.82;44.82;97950.54;1643613;85;20374;-67
2021/04/26 10:11:27;;;;;;;;;;;;;;;8.96;43.86;97946.14;1638289;85;20598;-63
2021/04/26 10:14:07;;;;;;;;;;;;;;;9.03;43.19;97941.30;1611485;86;22083;-64
2021/04/26 10:16:43;;;;;;;;;;;;;;;9.16;45.49;97941.84;1627898;85;20331;-64
2021/04/26 10:19:15;;;;;;;;;;;;;;;9.34;44.17;97944.33;1634940;85;20498;-67
2021/04/26 10:21:55;;;;;;;;;;;;;;;9.28;44.50;97943.15;1632730;84;20233;-66
2021/04/26 10:24:25;;;;;;;;;;;;;;;9.22;44.95;97946.70;1632984;85;20571;-66
2021/04/26 10:26:57;;;;;;;;;;;;;;;9.18;43.23;97952.91;1636651;85;21393;-67
2021/04/26 10:29:34;;;;;;;;;;;;;;;9.18;45.25;97931.93;1642990;84;20392;-67
2021/04/26 10:32:09;;;;;;;;;;;;;;;9.22;45.90;97929.66;1634756;85;20419;-67
2021/04/26 10:34:48;;;;;;;;;;;;;;;9.02;47.89;97939.18;1633236;84;20290;-64
2021/04/26 10:37:26;;;;;;;;;;;;;;;8.84;45.97;97941.44;1638308;84;20628;-67
2021/04/26 10:40:01;;;;;;;;;;;;;;;8.69;46.99;97936.36;1641108;84;21722;-65
2021/04/26 10:42:44;;;;;;;;;;;;;;;8.66;46.56;97927.12;1650553;84;20552;-65
2021/04/26 10:45:22;;;;;;;;;;;;;;;8.67;46.64;97933.16;1650872;84;20295;-69
2021/04/26 10:48:07;;;;;;;;;;;;;;;8.67;47.12;97922.68;1649165;84;20492;-69
2021/04/26 10:50:41;;;;;;;;;;;;;;;8.73;48.05;97916.52;1645147;85;20623;-70
2021/04/26 10:53:10;;;;;;;;;;;;;;;8.79;46.71;97911.16;1645277;84;21908;-69
2021/04/26 10:55:45;;;;;;;;;;;;;;;8.78;45.71;97908.80;1630506;84;20594;-70
2021/04/26 10:58:22;;;;;;;;;;;;;;;8.69;46.57;97900.48;1634445;85;20502;-70
2021/04/26 11:00:50;;;;;;;;;;;;;;;8.64;46.58;97891.20;1635649;85;20871;-71
2021/04/26 11:03:29;;;;;;;;;;;;;;;8.64;44.58;97886.48;1638380;84;20615;-71
2021/04/26 11:06:00;;;;;;;;;;;;;;;8.65;46.24;97888.84;1635743;85;21909;-68
2021/04/26 11:08:54;;;;;;;;;;;;;;;8.72;46.10;97879.55;1637477;84;20562;-67
2021/04/26 11:11:29;;;;;;;;;;;;;;;8.82;46.03;97890.27;1715188;81;20598;-66
2021/04/26 11:14:00;;;;;;;;;;;;;;;8.84;45.26;97889.02;1739337;79;20334;-64
2021/04/26 11:16:33;;;;;;;;;;;;;;;8.79;45.33;97882.87;1759627;79;20607;-67
2021/04/26 11:19:10;;;;;;;;;;;;;;;8.81;45.40;97886.05;1759099;79;22746;-65
2021/04/26 11:21:49;;;;;;;;;;;;;;;8.92;43.93;97883.94;1721511;81;20502;-66
2021/04/26 11:24:28;;;;;;;;;;;;;;;8.99;44.85;97884.61;1745178;80;20531;-67
2021/04/26 11:27:13;;;;;;;;;;;;;;;9.04;44.60;97879.46;1781402;78;20496;-65
2021/04/26 11:29:52;;;;;;;;;;;;;;;9.13;44.17;97882.02;1783948;78;20532;-66
2021/04/26 11:32:22;;;;;;;;;;;;;;;9.22;44.75;97870.66;1783892;78;21913;-69
2021/04/26 11:34:56;;;;;;;;;;;;;;;9.22;42.64;97876.67;1783478;78;20275;-67
2021/04/26 11:37:24;;;;;;;;;;;;;;;9.26;42.49;97875.70;1782464;78;20523;-72
2021/04/26 11:39:54;;;;;;;;;;;;;;;9.38;44.15;97866.76;1778627;78;20448;-70
2021/04/26 11:42:25;;;;;;;;;;;;;;;9.54;44.22;97874.91;1782416;78;20678;-67
2021/04/26 11:44:53;;;;;;;;;;;;;;;9.60;43.08;97874.77;1779847;78;22205;-64
2021/04/26 11:47:21;;;;;;;;;;;;;;;9.64;43.32;97877.73;1783390;78;20877;-69
2021/04/26 11:49:51;;;;;;;;;;;;;;;9.67;43.69;97873.31;1782368;78;20480;-67
2021/04/26 11:52:24;;;;;;;;;;;;;;;9.71;43.28;97872.63;1780372;79;20426;-70
2021/04/26 11:54:53;;;;;;;;;;;;;;;9.83;43.64;97870.44;1779338;78;20695;-68
2021/04/26 11:57:23;;;;;;;;;;;;;;;9.86;43.54;97878.66;1782205;78;21862;-72
2021/04/26 11:59:55;;;;;;;;;;;;;;;9.72;41.69;97871.59;1783191;78;20499;-68
2021/04/26 12:02:44;;;;;;;;;;;;;;;9.63;42.45;97870.89;1785762;78;20532;-69
2021/04/26 12:05:17;;;;;;;;;;;;;;;9.59;41.25;97872.38;1785256;78;20597;-65
2021/04/26 12:07:47;;;;;;;;;;;;;;;9.59;42.85;97878.94;1792671;78;20675;-64
2021/04/26 12:10:19;;;;;;;;;;;;;;;9.67;41.65;97868.06;1783960;78;22135;-66
2021/04/26 12:12:47;;;;;;;;;;;;;;;9.76;42.13;97862.72;1791109;78;20534;-66
2021/04/26 12:15:18;;;;;;;;;;;;;;;9.93;42.53;97858.30;1784165;79;20490;-71
2021/04/26 12:17:52;;;;;;;;;;;;;;;10.17;42.45;97853.19;1784905;78;20218;-70
2021/04/26 12:20:22;;;;;;;;;;;;;;;10.49;42.15;97848.67;1782267;78;20716;-70
2021/04/26 12:22:53;;;;;;;;;;;;;;;10.74;42.85;97844.27;1783331;78;21893;-71
2021/04/26 12:25:20;;;;;;;;;;;;;;;10.91;41.33;97845.02;1786732;78;20684;-68
2021/04/26 12:27:49;;;;;;;;;;;;;;;10.95;40.21;97835.59;1786974;78;20487;-67
2021/04/26 12:30:20;;;;;;;;;;;;;;;10.88;41.54;97838.41;1778683;79;20569;-70
2021/04/26 12:32:49;;;;;;;;;;;;;;;10.84;40.99;97841.78;1789121;79;20804;-70
2021/04/26 12:35:18;;;;;;;;;;;;;;;10.83;40.79;97830.98;1777467;79;22064;-65
2021/04/26 12:37:47;;;;;;;;;;;;;;;10.86;41.18;97835.25;1781971;78;20475;-65
2021/04/26 12:40:26;;;;;;;;;;;;;;;10.80;39.38;97828.86;1788974;79;20502;-65
2021/04/26 12:43:00;;;;;;;;;;;;;;;10.61;39.38;97823.59;1795758;78;20251;-64
2021/04/26 12:45:40;;;;;;;;;;;;;;;10.52;39.61;97827.15;1783909;78;20598;-66
2021/04/26 12:48:10;;;;;;;;;;;;;;;10.55;40.15;97813.54;1782484;78;22268;-66
2021/04/26 12:50:45;;;;;;;;;;;;;;;10.49;39.09;97809.26;1783411;79;20558;-66
2021/04/26 12:53:18;;;;;;;;;;;;;;;10.39;39.55;97809.91;1786352;78;20438;-65
2021/04/26 12:55:51;;;;;;;;;;;;;;;10.32;40.08;97804.02;1793616;79;20581;-66
2021/04/26 12:58:28;;;;;;;;;;;;;;;10.29;40.06;97802.41;1785753;79;20617;-69
2021/04/26 13:00:57;;;;;;;;;;;;;;;10.29;40.11;97801.90;1785928;79;22060;-61
2021/04/26 13:03:42;;;;;;;;;;;;;;;10.35;39.52;97790.42;1780186;79;20488;-66
2021/04/26 13:06:17;;;;;;;;;;;;;;;10.36;39.68;97791.22;1793458;78;20109;-67
2021/04/26 13:08:46;;;;;;;;;;;;;;;10.30;39.68;97782.99;1785870;79;20486;-66
2021/04/26 13:11:34;;;;;;;;;;;;;;;10.22;38.98;97779.46;1788750;79;21054;-63
2021/04/26 13:14:04;;;;;;;;;;;;;;;10.13;39.27;97776.41;1782431;79;22349;-64
2021/04/26 13:16:33;;;;;;;;;;;;;;;10.07;40.10;97772.92;1788696;79;20580;-65
2021/04/26 13:19:02;;;;;;;;;;;;;;;10.10;40.37;97767.17;1780526;79;20583;-71
2021/04/26 13:21:37;;;;;;;;;;;;;;;10.08;40.15;97761.91;1782532;79;20629;-65
2021/04/26 13:24:16;;;;;;;;;;;;;;;10.04;42.06;97763.41;1790462;79;20637;-67
2021/04/26 13:26:47;;;;;;;;;;;;;;;9.96;41.11;97758.04;1794712;79;22084;-65
2021/04/26 13:29:19;;;;;;;;;;;;;;;9.81;41.50;97765.68;1783460;79;20481;-69
2021/04/26 13:31:49;;;;;;;;;;;;;;;9.71;41.04;97766.34;1796162;79;20528;-64
2021/04/26 13:34:18;;;;;;;;;;;;;;;9.71;42.03;97770.27;1786539;78;20397;-68
2021/04/26 13:36:46;;;;;;;;;;;;;;;9.81;43.19;97763.05;1790134;78;20942;-66
2021/04/26 13:39:15;;;;;;;;;;;;;;;9.94;41.09;97761.96;1780381;78;22053;-68
2021/04/26 13:41:46;;;;;;;;;;;;;;;9.99;40.98;97758.09;1786885;79;20470;-67
2021/04/26 13:44:14;;;;;;;;;;;;;;;10.00;41.58;97753.12;1784079;79;20576;-69
2021/04/26 13:46:42;;;;;;;;;;;;;;;9.98;41.82;97757.29;1789415;78;20569;-69
2021/04/26 13:49:10;;;;;;;;;;;;;;;9.94;42.38;97752.23;1792776;79;20621;-67
2021/04/26 13:51:39;;;;;;;;;;;;;;;9.90;42.17;97755.58;1790489;78;21850;-71
2021/04/26 13:54:08;;;;;;;;;;;;;;;9.94;42.88;97756.71;1787401;78;20473;-63
2021/04/26 13:56:40;;;;;;;;;;;;;;;10.00;42.97;97753.12;1792681;78;20574;-66
2021/04/26 13:59:08;;;;;;;;;;;;;;;10.08;40.81;97758.77;1785252;79;21246;-66
2021/04/26 14:01:36;;;;;;;;;;;;;;;10.24;42.29;97758.98;1794217;78;20981;-66
2021/04/26 14:04:05;;;;;;;;;;;;;;;10.41;40.67;97757.12;1787441;78;21873;-68
2021/04/26 14:06:33;;;;;;;;;;;;;;;10.39;40.94;97747.37;1752961;79;20689;-65
2021/04/26 14:09:04;;;;;;;;;;;;;;;10.33;40.99;97747.83;1789031;78;20603;-71
2021/04/26 14:11:31;;;;;;;;;;;;;;;10.26;40.66;97741.95;1787818;78;20579;-76
2021/04/26 14:13:59;;;;;;;;;;;;;;;10.18;40.71;97745.79;1778344;78;21131;-74
2021/04/26 14:16:27;;;;;;;;;;;;;;;10.10;40.36;97744.85;1771295;80;22343;-69
2021/04/26 14:18:56;;;;;;;;;;;;;;;10.10;40.47;97736.98;1765969;80;20590;-68
2021/04/26 14:21:24;;;;;;;;;;;;;;;10.25;41.50;97738.25;1766684;80;20593;-68
2021/04/26 14:23:52;;;;;;;;;;;;;;;10.48;41.42;97741.45;1766908;80;20570;-69
2021/04/26 14:26:21;;;;;;;;;;;;;;;10.54;39.86;97743.63;1766725;80;20775;-69
2021/04/26 14:28:49;;;;;;;;;;;;;;;10.46;40.43;97734.33;1766730;80;21958;-69
2021/04/26 14:31:18;;;;;;;;;;;;;;;10.34;40.50;97731.55;1767023;80;20480;-69
2021/04/26 14:33:45;;;;;;;;;;;;;;;10.27;40.38;97732.24;1768014;80;20481;-69
2021/04/26 14:36:15;;;;;;;;;;;;;;;10.35;40.90;97730.52;1768962;80;20432;-69
2021/04/26 14:38:43;;;;;;;;;;;;;;;10.55;41.32;97728.94;1768823;80;20750;-69
2021/04/26 14:41:10;;;;;;;;;;;;;;;10.84;40.42;97728.21;1768989;80;20905;-69
2021/04/26 14:43:39;;;;;;;;;;;;;;;11.07;38.49;97717.14;1768999;80;20479;-69
2021/04/26 14:46:07;;;;;;;;;;;;;;;11.17;39.26;97715.91;1768671;80;20495;-69
2021/04/26 14:48:38;;;;;;;;;;;;;;;11.25;39.39;97719.41;1768924;80;20238;-69
2021/04/26 14:51:06;;;;;;;;;;;;;;;11.28;38.80;97711.81;1769016;80;20686;-69
2021/04/26 14:53:35;;;;;;;;;;;;;;;11.22;38.86;97716.77;1768551;80;21916;-69
2021/04/26 14:56:04;;;;;;;;;;;;;;;11.08;38.96;97720.84;1768870;80;20487;-70
2021/04/26 14:58:32;;;;;;;;;;;;;;;10.88;38.97;97714.83;1768939;80;20496;-69
2021/04/26 15:01:00;;;;;;;;;;;;;;;10.82;39.19;97711.09;1768697;80;20508;-69
2021/04/26 15:03:28;;;;;;;;;;;;;;;10.80;39.73;97713.19;1768739;80;20657;-69
2021/04/26 15:05:57;;;;;;;;;;;;;;;10.80;38.95;97721.08;1768615;80;21861;-69
2021/04/26 15:08:25;;;;;;;;;;;;;;;10.74;38.79;97715.46;1768790;80;20594;-69
2021/04/26 15:10:53;;;;;;;;;;;;;;;10.67;38.47;97716.97;1768645;80;20486;-69
2021/04/26 15:13:21;;;;;;;;;;;;;;;10.61;37.49;97715.84;1769566;80;20503;-69
2021/04/26 15:15:50;;;;;;;;;;;;;;;10.54;38.56;97712.89;1783570;80;20644;-70
2021/04/26 15:18:17;;;;;;;;;;;;;;;10.59;39.05;97710.83;1783735;80;21913;-69
2021/04/26 15:20:45;;;;;;;;;;;;;;;10.63;39.11;97707.20;1783555;80;20489;-69
2021/04/26 15:23:13;;;;;;;;;;;;;;;10.64;39.09;97703.54;1783784;80;20483;-69
2021/04/26 15:25:44;;;;;;;;;;;;;;;10.56;38.47;97709.50;1783550;80;20479;-69
2021/04/26 15:28:14;;;;;;;;;;;;;;;10.44;39.82;97703.59;1783491;80;20697;-69
2021/04/26 15:30:43;;;;;;;;;;;;;;;10.29;40.11;97702.59;1783574;80;21840;-69
2021/04/26 15:33:12;;;;;;;;;;;;;;;10.15;39.67;97693.73;1783646;80;20492;-65
2021/04/26 15:35:41;;;;;;;;;;;;;;;10.10;40.89;97688.91;1783560;80;20482;-64
2021/04/26 15:38:09;;;;;;;;;;;;;;;10.04;39.48;97686.75;1783686;80;20486;-70
2021/04/26 15:40:38;;;;;;;;;;;;;;;10.02;40.06;97686.19;1784062;80;20743;-70
2021/04/26 15:43:09;;;;;;;;;;;;;;;10.13;40.30;97683.19;1783737;80;21936;-71
2021/04/26 15:45:37;;;;;;;;;;;;;;;10.29;39.69;97675.81;1783476;80;20494;-68
2021/04/26 15:48:06;;;;;;;;;;;;;;;10.53;40.43;97676.34;1783581;80;20515;-68
2021/04/26 15:50:35;;;;;;;;;;;;;;;10.69;38.61;97670.21;1783697;80;20502;-65
2021/04/26 15:53:04;;;;;;;;;;;;;;;10.76;38.74;97665.55;1783776;80;20490;-65
2021/04/26 15:55:31;;;;;;;;;;;;;;;10.80;38.53;97675.07;1783874;80;22647;-65
2021/04/26 15:57:59;;;;;;;;;;;;;;;10.81;38.67;97662.97;1783585;80;20475;-65
2021/04/26 16:00:27;;;;;;;;;;;;;;;10.87;38.86;97662.00;1783491;80;20488;-66
2021/04/26 16:02:55;;;;;;;;;;;;;;;10.95;38.36;97660.73;1783535;80;20502;-67
2021/04/26 16:05:24;;;;;;;;;;;;;;;11.06;38.62;97658.48;1783563;80;20596;-67
2021/04/26 16:07:54;;;;;;;;;;;;;;;11.16;40.90;97654.64;1779472;80;21896;-68
2021/04/26 16:10:22;;;;;;;;;;;;;;;11.24;39.39;97644.95;1783610;80;20561;-66
2021/04/26 16:12:51;;;;;;;;;;;;;;;11.31;38.69;97649.47;1783551;80;20304;-65
2021/04/26 16:15:21;;;;;;;;;;;;;;;11.35;38.66;97650.58;1783616;79;20274;-67
2021/04/26 16:17:49;;;;;;;;;;;;;;;11.30;39.03;97647.12;1783602;80;20623;-67
2021/04/26 16:20:19;;;;;;;;;;;;;;;11.20;40.05;97646.50;1783662;80;21858;-68
2021/04/26 16:22:49;;;;;;;;;;;;;;;11.09;41.58;97644.05;1783667;80;20506;-68
2021/04/26 16:25:16;;;;;;;;;;;;;;;10.92;40.77;97644.16;1783579;80;20486;-67
2021/04/26 16:27:44;;;;;;;;;;;;;;;10.72;41.17;97639.50;1783462;80;20496;-67
2021/04/26 16:30:13;;;;;;;;;;;;;;;10.53;42.20;97644.28;1783564;80;20634;-68
2021/04/26 16:32:41;;;;;;;;;;;;;;;10.43;42.39;97640.77;1783607;80;21918;-68
2021/04/26 16:35:09;;;;;;;;;;;;;;;10.36;42.68;97637.54;1783701;80;20495;-68
2021/04/26 16:37:38;;;;;;;;;;;;;;;10.28;42.23;97637.45;1783740;80;20505;-68
2021/04/26 16:40:06;;;;;;;;;;;;;;;10.18;42.52;97636.80;1783468;80;20490;-67
2021/04/26 16:42:34;;;;;;;;;;;;;;;10.07;42.79;97635.07;1783494;80;20617;-68
2021/04/26 16:45:03;;;;;;;;;;;;;;;9.96;42.76;97633.34;1783599;80;22481;-68
2021/04/26 16:47:31;;;;;;;;;;;;;;;9.83;43.23;97631.08;1783417;80;20277;-67
2021/04/26 16:50:01;;;;;;;;;;;;;;;9.69;43.58;97636.39;1783433;80;20506;-68
2021/04/26 16:52:29;;;;;;;;;;;;;;;9.57;44.28;97635.70;1783414;80;20483;-68
2021/04/26 16:54:57;;;;;;;;;;;;;;;9.44;45.41;97631.56;1783641;80;20617;-68
2021/04/26 16:57:25;;;;;;;;;;;;;;;9.31;47.47;97637.14;1783719;80;22086;-66
2021/04/26 16:59:53;;;;;;;;;;;;;;;9.20;48.15;97642.75;1783600;80;20537;-66
2021/04/26 17:02:21;;;;;;;;;;;;;;;9.06;48.38;97638.86;1783458;80;20482;-67
2021/04/26 17:04:49;;;;;;;;;;;;;;;8.98;48.32;97642.66;1783541;80;20486;-66
2021/04/26 17:07:16;;;;;;;;;;;;;;;8.93;48.13;97641.24;1783707;80;20677;-67
2021/04/26 17:09:44;;;;;;;;;;;;;;;8.89;49.01;97646.69;1783848;80;21787;-66
2021/04/26 17:12:12;;;;;;;;;;;;;;;8.85;49.30;97648.72;1783490;80;20495;-66
2021/04/26 17:14:40;;;;;;;;;;;;;;;8.76;49.33;97644.37;1783318;80;20475;-67
2021/04/26 17:17:08;;;;;;;;;;;;;;;8.67;49.02;97646.28;1783398;80;20636;-66
2021/04/26 17:19:37;;;;;;;;;;;;;;;8.59;49.54;97653.48;1783436;80;20634;-67
2021/04/26 17:22:04;;;;;;;;;;;;;;;8.49;50.05;97658.55;1783715;80;21927;-67
2021/04/26 17:24:33;;;;;;;;;;;;;;;8.37;50.79;97655.67;1783403;80;20565;-67
2021/04/26 17:27:00;;;;;;;;;;;;;;;8.23;51.49;97661.14;1783510;80;20479;-67
2021/04/26 17:29:28;;;;;;;;;;;;;;;8.14;52.84;97662.52;1783443;80;20486;-67
2021/04/26 17:31:57;;;;;;;;;;;;;;;8.05;52.58;97664.44;1783480;80;20738;-67
2021/04/26 17:34:25;;;;;;;;;;;;;;;7.98;53.18;97666.38;1783718;80;21794;-67
2021/04/26 17:36:53;;;;;;;;;;;;;;;7.89;53.02;97664.62;1783579;80;20562;-67
2021/04/26 17:39:21;;;;;;;;;;;;;;;7.82;53.87;97667.36;1783425;80;20488;-68
2021/04/26 17:41:49;;;;;;;;;;;;;;;7.75;54.29;97665.38;1783813;80;20357;-68
2021/04/26 17:44:17;;;;;;;;;;;;;;;7.70;55.14;97667.09;1783519;80;20585;-67
2021/04/26 17:46:45;;;;;;;;;;;;;;;7.63;55.36;97668.52;1783824;80;22117;-68
2021/04/26 17:49:14;;;;;;;;;;;;;;;7.53;56.21;97665.66;1783262;80;20487;-66
2021/04/26 17:51:42;;;;;;;;;;;;;;;7.44;56.86;97670.94;1783385;80;20625;-66
2021/04/26 17:54:10;;;;;;;;;;;;;;;7.39;57.36;97678.66;1783679;80;20493;-66
2021/04/26 17:56:38;;;;;;;;;;;;;;;7.31;57.57;97675.07;1783478;80;20718;-66
2021/04/26 17:59:06;;;;;;;;;;;;;;;7.19;57.86;97675.58;1783683;80;22081;-66
2021/04/26 18:01:34;;;;;;;;;;;;;;;7.10;58.44;97675.60;1783607;80;20522;-67